createdAt,value
2022-12-01T00:00:05.880Z,89.80
2022-12-01T00:02:32.627Z,89.90
2022-12-01T00:04:59.320Z,89.90
2022-12-01T00:07:25.937Z,89.90
2022-12-01T00:09:52.572Z,89.80
2022-12-01T00:12:19.165Z,89.70
2022-12-01T00:14:45.832Z,89.70
2022-12-01T00:17:12.527Z,89.60
2022-12-01T00:19:39.097Z,89.60
2022-12-01T00:22:05.658Z,89.40
2022-12-01T00:24:32.315Z,89.30
2022-12-01T00:26:59.053Z,89.00
2022-12-01T00:29:25.894Z,88.80
2022-12-01T00:31:52.551Z,88.60
2022-12-01T00:34:23.428Z,88.30
2022-12-01T00:36:50.465Z,88.00
2022-12-01T00:39:17.403Z,87.90
2022-12-01T00:41:44.098Z,88.10
2022-12-01T00:44:10.847Z,88.30
2022-12-01T00:46:37.423Z,88.30
2022-12-01T00:49:04.029Z,88.40
2022-12-01T00:51:30.648Z,88.60
2022-12-01T00:53:57.542Z,88.70
2022-12-01T00:56:24.186Z,88.80
2022-12-01T00:58:50.802Z,88.90
2022-12-01T01:01:17.601Z,88.80
2022-12-01T01:03:44.315Z,88.70
2022-12-01T01:06:11.394Z,88.70
2022-12-01T01:08:38.362Z,88.90
2022-12-01T01:11:05.208Z,89.10
2022-12-01T01:13:32.161Z,89.20
2022-12-01T01:16:06.904Z,89.10
2022-12-01T01:18:33.736Z,89.10
2022-12-01T01:21:04.758Z,89.20
2022-12-01T01:23:31.489Z,89.20
2022-12-01T01:26:05.821Z,89.20
2022-12-01T01:28:32.557Z,89.10
2022-12-01T01:30:59.519Z,89.10
2022-12-01T01:33:26.377Z,89.20
2022-12-01T01:35:52.969Z,89.20
2022-12-01T01:38:19.593Z,89.20
2022-12-01T01:40:46.504Z,89.40
2022-12-01T01:43:16.967Z,89.60
2022-12-01T01:45:43.785Z,89.70
2022-12-01T01:48:11.748Z,89.70
2022-12-01T01:50:38.364Z,89.60
2022-12-01T01:53:08.601Z,89.70
2022-12-01T01:55:35.572Z,89.60
2022-12-01T01:58:03.822Z,89.60
2022-12-01T02:03:09.591Z,89.60
2022-12-01T02:05:36.211Z,89.60
2022-12-01T02:08:03.697Z,89.60
2022-12-01T02:10:52.422Z,89.60
2022-12-01T02:13:33.798Z,89.50
2022-12-01T02:16:11.284Z,89.50
2022-12-01T02:18:57.421Z,89.30
2022-12-01T02:21:33.643Z,89.40
2022-12-01T02:24:03.368Z,89.40
2022-12-01T02:27:05.120Z,89.20
2022-12-01T02:29:43.751Z,89.20
2022-12-01T02:32:13.345Z,89.20
2022-12-01T02:34:59.347Z,89.20
2022-12-01T02:37:33.801Z,89.20
2022-12-01T02:40:04.110Z,89.20
2022-12-01T02:42:39.579Z,89.20
2022-12-01T02:45:09.774Z,89.20
2022-12-01T02:47:36.845Z,89.20
2022-12-01T02:50:03.790Z,89.20
2022-12-01T02:52:30.400Z,89.20
2022-12-01T02:54:56.999Z,89.20
2022-12-01T02:57:24.235Z,89.10
2022-12-01T02:59:52.856Z,89.10
2022-12-01T03:02:27.294Z,89.10
2022-12-01T03:05:00.517Z,89.10
2022-12-01T03:07:42.571Z,89.00
2022-12-01T03:10:27.204Z,88.90
2022-12-01T03:13:38.982Z,88.80
2022-12-01T03:16:11.417Z,88.50
2022-12-01T03:18:59.745Z,88.20
2022-12-01T03:21:38.613Z,88.20
2022-12-01T03:24:16.154Z,88.10
2022-12-01T03:26:44.517Z,88.00
2022-12-01T03:29:16.082Z,88.00
2022-12-01T03:31:45.402Z,87.90
2022-12-01T03:34:14.829Z,88.10
2022-12-01T03:36:47.830Z,88.20
2022-12-01T03:39:20.858Z,88.50
2022-12-01T03:41:51.380Z,88.80
2022-12-01T03:44:20.916Z,88.90
2022-12-01T03:46:59.447Z,88.90
2022-12-01T03:49:26.076Z,88.80
2022-12-01T03:52:34.553Z,88.90
2022-12-01T03:55:15.249Z,88.80
2022-12-01T03:57:49.012Z,88.70
2022-12-01T04:00:15.925Z,88.60
2022-12-01T04:02:42.649Z,88.60
2022-12-01T04:05:09.337Z,88.60
2022-12-01T04:07:36.979Z,88.70
2022-12-01T04:10:04.889Z,88.90
2022-12-01T04:12:32.938Z,89.00
2022-12-01T04:15:03.249Z,89.10
2022-12-01T04:17:32.308Z,89.20
2022-12-01T04:19:59.547Z,89.20
2022-12-01T04:22:26.957Z,89.20
2022-12-01T04:24:54.332Z,89.10
2022-12-01T04:27:22.342Z,89.20
2022-12-01T04:29:50.684Z,89.30
2022-12-01T04:32:18.001Z,89.30
2022-12-01T04:34:44.869Z,89.40
2022-12-01T04:37:15.534Z,89.40
2022-12-01T04:39:43.530Z,89.30
2022-12-01T04:42:10.582Z,89.40
2022-12-01T04:44:39.316Z,89.30
2022-12-01T04:47:06.479Z,89.40
2022-12-01T04:49:35.354Z,89.50
2022-12-01T04:52:03.112Z,89.60
2022-12-01T04:54:30.086Z,89.70
2022-12-01T04:56:58.411Z,89.70
2022-12-01T04:59:27.082Z,89.70
2022-12-01T05:01:54.613Z,89.70
2022-12-01T05:04:22.381Z,89.60
2022-12-01T05:06:49.752Z,89.60
2022-12-01T05:09:18.115Z,89.70
2022-12-01T05:11:46.142Z,89.80
2022-12-01T05:14:12.775Z,89.80
2022-12-01T05:16:39.767Z,89.80
2022-12-01T05:19:06.519Z,89.80
2022-12-01T05:21:33.357Z,89.90
2022-12-01T05:24:03.282Z,89.90
2022-12-01T05:26:33.648Z,90.00
2022-12-01T05:29:00.849Z,90.10
2022-12-01T05:31:27.515Z,90.30
2022-12-01T05:33:54.184Z,90.40
2022-12-01T05:36:20.975Z,90.40
2022-12-01T05:38:47.541Z,90.50
2022-12-01T05:41:14.705Z,90.50
2022-12-01T05:43:41.341Z,90.60
2022-12-01T05:46:08.012Z,90.70
2022-12-01T05:48:34.689Z,90.70
2022-12-01T05:51:10.573Z,90.70
2022-12-01T05:53:37.314Z,90.70
2022-12-01T05:56:04.413Z,90.70
2022-12-01T05:58:31.047Z,90.70
2022-12-01T06:00:57.658Z,90.70
2022-12-01T06:03:24.304Z,90.70
2022-12-01T06:05:51.091Z,90.70
2022-12-01T06:08:17.802Z,90.70
2022-12-01T06:10:44.519Z,90.70
2022-12-01T06:13:11.172Z,90.70
2022-12-01T06:15:38.071Z,90.70
2022-12-01T06:18:05.918Z,90.70
2022-12-01T06:20:32.616Z,90.70
2022-12-01T06:22:59.406Z,90.60
2022-12-01T06:25:26.053Z,90.60
2022-12-01T06:27:57.621Z,90.50
2022-12-01T06:30:24.771Z,90.40
2022-12-01T06:32:51.892Z,90.50
2022-12-01T06:35:18.700Z,90.40
2022-12-01T06:37:45.469Z,90.40
2022-12-01T06:40:12.502Z,90.40
2022-12-01T06:42:39.180Z,90.40
2022-12-01T06:45:06.315Z,90.40
2022-12-01T06:47:32.978Z,90.20
2022-12-01T06:49:59.804Z,90.00
2022-12-01T06:52:26.536Z,89.80
2022-12-01T06:54:53.237Z,89.60
2022-12-01T06:57:20.311Z,89.50
2022-12-01T06:59:47.742Z,89.20
2022-12-01T07:02:14.971Z,88.90
2022-12-01T07:04:41.655Z,88.80
2022-12-01T07:07:08.334Z,88.80
2022-12-01T07:09:35.005Z,88.70
2022-12-01T07:12:01.689Z,88.60
2022-12-01T07:14:29.620Z,88.50
2022-12-01T07:16:56.292Z,88.30
2022-12-01T07:19:22.972Z,88.20
2022-12-01T07:21:49.657Z,88.10
2022-12-01T07:24:16.475Z,88.00
2022-12-01T07:26:43.348Z,87.90
2022-12-01T07:29:10.291Z,87.70
2022-12-01T07:31:38.054Z,87.90
2022-12-01T07:34:04.899Z,88.10
2022-12-01T07:36:31.618Z,88.20
2022-12-01T07:38:58.279Z,88.20
2022-12-01T07:41:25.094Z,88.40
2022-12-01T07:43:51.795Z,88.40
2022-12-01T07:46:24.011Z,88.40
2022-12-01T07:48:51.507Z,88.50
2022-12-01T07:51:18.399Z,88.60
2022-12-01T07:53:45.504Z,88.60
2022-12-01T07:56:12.242Z,88.70
2022-12-01T07:58:38.918Z,88.70
2022-12-01T08:01:10.238Z,88.70
2022-12-01T08:03:37.282Z,88.70
2022-12-01T08:06:04.276Z,88.90
2022-12-01T08:08:31.630Z,88.90
2022-12-01T08:11:02.704Z,89.00
2022-12-01T08:13:29.514Z,89.10
2022-12-01T08:15:56.399Z,89.20
2022-12-01T08:18:23.397Z,89.40
2022-12-01T08:20:50.719Z,89.50
2022-12-01T08:23:17.321Z,89.50
2022-12-01T08:25:43.923Z,89.40
2022-12-01T08:28:10.509Z,89.30
2022-12-01T08:30:37.096Z,89.20
2022-12-01T08:33:03.887Z,89.30
2022-12-01T08:35:30.649Z,89.50
2022-12-01T08:37:57.208Z,89.70
2022-12-01T08:40:23.941Z,90.00
2022-12-01T08:42:52.005Z,90.20
2022-12-01T08:45:18.692Z,90.30
2022-12-01T08:47:45.341Z,90.50
2022-12-01T08:50:12.065Z,90.70
2022-12-01T08:52:38.708Z,90.80
2022-12-01T08:55:06.075Z,91.00
2022-12-01T08:57:32.712Z,91.10
2022-12-01T08:59:59.353Z,91.20
2022-12-01T09:02:26.022Z,91.00
2022-12-01T09:04:52.712Z,90.90
2022-12-01T09:07:25.912Z,90.90
2022-12-01T09:09:53.145Z,91.10
2022-12-01T09:12:19.789Z,91.40
2022-12-01T09:14:46.474Z,91.70
2022-12-01T09:17:15.912Z,91.90
2022-12-01T09:19:43.314Z,91.80
2022-12-01T09:22:10.607Z,91.60
2022-12-01T09:24:37.388Z,91.50
2022-12-01T09:27:04.299Z,91.20
2022-12-01T09:29:31.016Z,91.00
2022-12-01T09:31:58.329Z,90.70
2022-12-01T09:34:25.141Z,90.60
2022-12-01T09:36:51.775Z,90.20
2022-12-01T09:39:19.409Z,90.30
2022-12-01T09:41:54.630Z,90.30
2022-12-01T09:44:43.081Z,90.60
2022-12-01T09:47:31.070Z,92.40
2022-12-01T09:50:01.027Z,91.80
2022-12-01T09:52:29.207Z,90.60
2022-12-01T09:54:56.028Z,88.80
2022-12-01T09:57:32.017Z,86.70
2022-12-01T09:59:58.556Z,84.50
2022-12-01T10:02:33.769Z,80.40
2022-12-01T10:05:02.961Z,81.70
2022-12-01T10:07:43.891Z,80.70
2022-12-01T10:10:31.255Z,79.00
2022-12-01T10:12:57.896Z,77.00
2022-12-01T10:15:55.672Z,77.30
2022-12-01T10:18:25.238Z,74.80
2022-12-01T10:20:53.781Z,74.10
2022-12-01T10:23:38.425Z,71.90
2022-12-01T10:26:10.198Z,70.10
2022-12-01T10:29:15.134Z,69.80
2022-12-01T10:31:56.193Z,68.40
2022-12-01T10:34:25.593Z,66.40
2022-12-01T10:36:52.257Z,67.00
2022-12-01T10:39:23.410Z,66.10
2022-12-01T10:41:50.085Z,65.20
2022-12-01T10:44:17.260Z,64.70
2022-12-01T10:46:49.556Z,63.90
2022-12-01T10:49:17.179Z,62.90
2022-12-01T10:51:50.843Z,62.60
2022-12-01T10:54:17.490Z,61.50
2022-12-01T10:56:46.600Z,61.00
2022-12-01T10:59:31.287Z,60.20
2022-12-01T11:01:58.389Z,58.90
2022-12-01T11:04:51.146Z,58.90
2022-12-01T11:07:32.474Z,57.80
2022-12-01T11:10:14.235Z,58.70
2022-12-01T11:12:41.091Z,58.90
2022-12-01T11:15:07.932Z,59.60
2022-12-01T11:17:43.707Z,59.50
2022-12-01T11:20:27.339Z,57.80
2022-12-01T11:23:17.648Z,57.30
2022-12-01T11:26:03.951Z,57.20
2022-12-01T11:28:30.864Z,55.00
2022-12-01T11:31:08.544Z,54.70
2022-12-01T11:33:52.329Z,53.00
2022-12-01T11:36:42.404Z,51.30
2022-12-01T11:39:23.976Z,51.80
2022-12-01T11:41:55.250Z,50.60
2022-12-01T11:44:49.827Z,49.60
2022-12-01T11:47:23.275Z,48.90
2022-12-01T11:49:56.169Z,48.10
2022-12-01T11:52:23.645Z,47.30
2022-12-01T11:55:16.665Z,47.50
2022-12-01T11:57:44.488Z,45.50
2022-12-01T12:00:19.490Z,47.10
2022-12-01T12:02:51.550Z,45.80
2022-12-01T12:05:45.934Z,45.90
2022-12-01T12:08:22.844Z,44.90
2022-12-01T12:11:18.069Z,45.00
2022-12-01T12:13:44.605Z,44.00
2022-12-01T12:16:36.777Z,44.10
2022-12-01T12:19:33.897Z,43.90
2022-12-01T12:22:12.709Z,43.50
2022-12-01T12:24:52.147Z,43.30
2022-12-01T12:27:32.286Z,42.20
2022-12-01T12:30:23.740Z,42.50
2022-12-01T12:33:22.051Z,42.10
2022-12-01T12:35:51.453Z,42.30
2022-12-01T12:38:42.599Z,42.10
2022-12-01T12:41:30.178Z,42.10
2022-12-01T12:44:36.757Z,41.80
2022-12-01T12:47:10.352Z,41.80
2022-12-01T12:49:43.028Z,41.40
2022-12-01T12:52:21.164Z,41.30
2022-12-01T12:54:53.289Z,41.10
2022-12-01T12:57:25.561Z,41.10
2022-12-01T13:00:03.053Z,40.90
2022-12-01T13:02:53.333Z,41.20
2022-12-01T13:05:33.246Z,41.30
2022-12-01T13:08:08.419Z,40.90
2022-12-01T13:11:06.873Z,40.50
2022-12-01T13:13:47.023Z,39.60
2022-12-01T13:16:22.318Z,40.50
2022-12-01T13:18:55.044Z,40.50
2022-12-01T13:21:22.418Z,40.90
2022-12-01T13:23:49.844Z,41.90
2022-12-01T13:26:17.936Z,42.50
2022-12-01T13:28:45.910Z,43.30
2022-12-01T13:31:16.170Z,43.60
2022-12-01T13:33:56.723Z,44.10
2022-12-01T13:36:45.790Z,44.70
2022-12-01T13:39:33.559Z,45.60
2022-12-01T13:42:03.008Z,46.60
2022-12-01T13:44:53.105Z,47.60
2022-12-01T13:47:19.763Z,48.40
2022-12-01T13:49:50.196Z,49.50
2022-12-01T13:52:22.941Z,50.10
2022-12-01T13:55:08.655Z,50.80
2022-12-01T13:57:49.634Z,51.60
2022-12-01T14:00:23.648Z,52.50
2022-12-01T14:03:12.206Z,53.00
2022-12-01T14:06:05.072Z,53.90
2022-12-01T14:08:45.446Z,53.90
2022-12-01T14:11:23.301Z,54.10
2022-12-01T14:14:06.437Z,54.30
2022-12-01T14:16:52.925Z,54.50
2022-12-01T14:19:47.253Z,55.00
2022-12-01T14:22:32.435Z,55.50
2022-12-01T14:24:59.055Z,55.50
2022-12-01T14:27:42.473Z,56.10
2022-12-01T14:30:41.489Z,56.90
2022-12-01T14:33:39.148Z,56.70
2022-12-01T14:36:07.589Z,56.80
2022-12-01T14:38:34.162Z,57.00
2022-12-01T14:41:00.801Z,57.50
2022-12-01T14:43:27.411Z,57.70
2022-12-01T14:46:01.480Z,58.10
2022-12-01T14:48:44.551Z,58.40
2022-12-01T14:51:18.206Z,58.90
2022-12-01T14:53:59.228Z,58.60
2022-12-01T14:56:27.903Z,58.90
2022-12-01T14:58:59.729Z,58.90
2022-12-01T15:01:31.779Z,59.10
2022-12-01T15:03:59.148Z,59.30
2022-12-01T15:06:27.338Z,59.70
2022-12-01T15:11:59.246Z,60.10
2022-12-01T15:14:36.893Z,60.20
2022-12-01T15:17:04.091Z,60.50
2022-12-01T15:19:39.209Z,60.40
2022-12-01T15:22:13.854Z,60.70
2022-12-01T15:24:40.760Z,60.90
2022-12-01T15:27:29.052Z,61.30
2022-12-01T15:30:02.257Z,61.70
2022-12-01T15:32:32.585Z,63.00
2022-12-01T15:35:00.351Z,61.50
2022-12-01T15:37:28.527Z,61.70
2022-12-01T15:40:54.025Z,61.80
2022-12-01T15:43:15.827Z,62.10
2022-12-01T15:46:11.708Z,62.70
2022-12-01T15:48:42.713Z,62.70
2022-12-01T15:51:25.605Z,62.70
2022-12-01T15:53:54.494Z,63.00
2022-12-01T15:56:38.637Z,63.20
2022-12-01T15:59:29.253Z,63.80
2022-12-01T16:01:56.903Z,64.20
2022-12-01T16:04:28.551Z,64.30
2022-12-01T16:07:05.956Z,64.60
2022-12-01T16:09:36.735Z,65.00
2022-12-01T16:12:12.849Z,65.30
2022-12-01T16:14:49.755Z,65.50
2022-12-01T16:17:16.764Z,66.80
2022-12-01T16:19:43.471Z,65.30
2022-12-01T16:22:18.557Z,65.60
2022-12-01T16:24:55.066Z,65.80
2022-12-01T16:27:25.687Z,66.10
2022-12-01T16:29:57.387Z,66.20
2022-12-01T16:32:30.392Z,66.60
2022-12-01T16:34:58.434Z,66.80
2022-12-01T16:37:26.405Z,67.20
2022-12-01T16:39:53.032Z,67.40
2022-12-01T16:42:20.500Z,67.70
2022-12-01T16:44:47.656Z,67.80
2022-12-01T16:47:18.487Z,68.00
2022-12-01T16:49:45.165Z,68.40
2022-12-01T16:54:58.436Z,69.00
2022-12-01T16:57:25.083Z,69.00
2022-12-01T16:59:52.260Z,69.20
2022-12-01T17:02:18.906Z,69.60
2022-12-01T17:04:45.577Z,69.60
2022-12-01T17:07:12.221Z,69.70
2022-12-01T17:09:39.006Z,69.80
2022-12-01T17:12:05.973Z,69.80
2022-12-01T17:14:41.797Z,70.10
2022-12-01T17:17:11.024Z,70.30
2022-12-01T17:19:40.724Z,70.40
2022-12-01T17:22:07.539Z,70.50
2022-12-01T17:24:36.471Z,70.50
2022-12-01T17:27:05.990Z,70.80
2022-12-01T17:29:32.670Z,71.00
2022-12-01T17:31:59.294Z,71.20
2022-12-01T17:34:25.934Z,71.30
2022-12-01T17:36:52.625Z,71.30
2022-12-01T17:39:19.380Z,71.60
2022-12-01T17:41:46.043Z,71.70
2022-12-01T17:44:12.689Z,71.70
2022-12-01T17:46:39.449Z,71.90
2022-12-01T17:49:06.181Z,71.90
2022-12-01T17:51:32.964Z,72.00
2022-12-01T17:53:59.779Z,72.20
2022-12-01T17:56:26.423Z,72.30
2022-12-01T17:58:53.064Z,72.60
2022-12-01T18:01:23.045Z,72.50
2022-12-01T18:03:53.450Z,72.80
2022-12-01T18:06:20.259Z,72.80
2022-12-01T18:08:46.960Z,72.80
2022-12-01T18:11:15.406Z,72.90
2022-12-01T18:13:44.683Z,73.10
2022-12-01T18:16:16.918Z,73.10
2022-12-01T18:18:43.848Z,73.20
2022-12-01T18:21:12.029Z,73.50
2022-12-01T18:23:41.270Z,73.60
2022-12-01T18:26:15.441Z,73.70
2022-12-01T18:28:43.226Z,73.80
2022-12-01T18:31:14.678Z,74.00
2022-12-01T18:33:42.688Z,74.30
2022-12-01T18:36:13.680Z,74.30
2022-12-01T18:38:40.675Z,74.30
2022-12-01T18:41:07.630Z,74.50
2022-12-01T18:43:34.565Z,74.50
2022-12-01T18:46:03.151Z,74.60
2022-12-01T18:48:30.671Z,74.70
2022-12-01T18:51:02.207Z,75.00
2022-12-01T18:53:28.930Z,75.10
2022-12-01T18:55:55.854Z,75.20
2022-12-01T18:58:22.559Z,75.30
2022-12-01T19:00:49.433Z,75.50
2022-12-01T19:03:16.162Z,75.50
2022-12-01T19:05:42.860Z,75.60
2022-12-01T19:08:10.716Z,75.60
2022-12-01T19:10:37.538Z,75.90
2022-12-01T19:13:04.430Z,76.00
2022-12-01T19:15:31.026Z,76.10
2022-12-01T19:17:57.753Z,76.10
2022-12-01T19:20:24.413Z,76.30
2022-12-01T19:22:53.839Z,76.30
2022-12-01T19:25:20.584Z,76.40
2022-12-01T19:27:47.493Z,76.50
2022-12-01T19:30:14.248Z,76.70
2022-12-01T19:32:40.877Z,76.90
2022-12-01T19:35:07.885Z,76.90
2022-12-01T19:37:34.562Z,77.20
2022-12-01T19:40:01.244Z,77.30
2022-12-01T19:42:27.917Z,77.40
2022-12-01T19:44:54.670Z,77.50
2022-12-01T19:47:22.537Z,77.50
2022-12-01T19:49:49.418Z,77.70
2022-12-01T19:52:16.058Z,77.90
2022-12-01T19:54:42.753Z,77.90
2022-12-01T19:57:09.433Z,78.00
2022-12-01T19:59:36.085Z,78.20
2022-12-01T20:02:02.970Z,77.90
2022-12-01T20:04:29.825Z,78.20
2022-12-01T20:06:56.950Z,78.40
2022-12-01T20:09:26.627Z,78.20
2022-12-01T20:11:53.639Z,78.40
2022-12-01T20:14:20.443Z,78.50
2022-12-01T20:16:47.428Z,78.50
2022-12-01T20:19:14.229Z,78.50
2022-12-01T20:21:41.155Z,78.60
2022-12-01T20:24:10.151Z,78.60
2022-12-01T20:26:47.243Z,78.80
2022-12-01T20:29:18.986Z,78.80
2022-12-01T20:31:45.947Z,78.80
2022-12-01T20:34:24.523Z,78.80
2022-12-01T20:36:52.288Z,79.10
2022-12-01T20:39:19.246Z,79.10
2022-12-01T20:41:46.053Z,79.20
2022-12-01T20:44:13.389Z,79.10
2022-12-01T20:46:40.151Z,79.30
2022-12-01T20:49:06.817Z,79.30
2022-12-01T20:51:34.698Z,79.40
2022-12-01T20:56:49.066Z,79.70
2022-12-01T20:59:16.149Z,79.60
2022-12-01T21:01:43.138Z,79.60
2022-12-01T21:04:09.868Z,79.70
2022-12-01T21:06:36.578Z,79.80
2022-12-01T21:09:03.856Z,79.80
2022-12-01T21:11:34.467Z,79.90
2022-12-01T21:14:01.167Z,80.00
2022-12-01T21:16:31.951Z,79.90
2022-12-01T21:19:04.840Z,80.10
2022-12-01T21:21:35.020Z,80.30
2022-12-01T21:24:07.918Z,80.30
2022-12-01T21:26:38.212Z,80.30
2022-12-01T21:29:24.351Z,80.20
2022-12-01T21:31:52.918Z,80.30
2022-12-01T21:34:24.404Z,80.40
2022-12-01T21:36:53.137Z,80.40
2022-12-01T21:39:21.177Z,80.70
2022-12-01T21:41:53.704Z,80.70
2022-12-01T21:44:21.649Z,80.70
2022-12-01T21:46:53.412Z,80.90
2022-12-01T21:49:21.512Z,80.90
2022-12-01T21:51:51.666Z,81.00
2022-12-01T21:54:21.771Z,81.00
2022-12-01T21:56:54.398Z,81.00
2022-12-01T21:59:24.060Z,81.00
2022-12-01T22:01:54.837Z,81.00
2022-12-01T22:04:25.912Z,81.00
2022-12-01T22:06:54.876Z,81.10
2022-12-01T22:09:30.568Z,81.30
2022-12-01T22:12:05.166Z,81.30
2022-12-01T22:14:35.571Z,81.50
2022-12-01T22:17:08.280Z,81.50
2022-12-01T22:19:38.944Z,81.70
2022-12-01T22:22:08.801Z,82.00
2022-12-01T22:24:39.171Z,82.00
2022-12-01T22:27:09.624Z,82.10
2022-12-01T22:29:40.291Z,82.30
2022-12-01T22:32:12.905Z,82.30
2022-12-01T22:34:52.244Z,82.50
2022-12-01T22:37:23.993Z,82.60
2022-12-01T22:39:59.638Z,82.60
2022-12-01T22:42:33.385Z,82.60
2022-12-01T22:45:21.422Z,82.60
2022-12-01T22:47:48.183Z,82.70
2022-12-01T22:50:31.485Z,82.80
2022-12-01T22:53:16.882Z,82.70
2022-12-01T22:55:43.753Z,82.80
2022-12-01T22:58:22.794Z,82.80
2022-12-01T23:00:49.601Z,82.70
2022-12-01T23:03:16.401Z,82.80
2022-12-01T23:05:43.937Z,82.90
2022-12-01T23:08:11.213Z,82.90
2022-12-01T23:10:38.223Z,82.90
2022-12-01T23:13:16.485Z,82.90
2022-12-01T23:15:47.425Z,83.00
2022-12-01T23:18:19.919Z,82.90
2022-12-01T23:20:48.219Z,83.00
2022-12-01T23:23:22.320Z,83.00
2022-12-01T23:25:49.859Z,83.10
2022-12-01T23:28:16.551Z,83.10
2022-12-01T23:30:44.385Z,83.20
2022-12-01T23:33:19.197Z,83.30
2022-12-01T23:35:47.025Z,83.30
2022-12-01T23:38:25.070Z,83.20
2022-12-01T23:40:52.689Z,83.30
2022-12-01T23:43:24.291Z,83.30
2022-12-01T23:45:56.033Z,83.40
2022-12-01T23:48:25.323Z,83.50
2022-12-01T23:50:53.089Z,83.50
2022-12-01T23:53:30.525Z,83.60
2022-12-01T23:56:01.096Z,83.80
2022-12-01T23:58:28.157Z,83.90
